sensor_id;sensor_type;location;lat;lon;timestamp;P1;durP1;ratioP1;P2;durP2;ratioP2
30036;SDS011;36325;51.512;-0.382;2023-07-31T00:00:06;14.43;;;4.47;;
30036;SDS011;36325;51.512;-0.382;2023-07-31T00:02:36;11.57;;;3.95;;
30036;SDS011;36325;51.512;-0.382;2023-07-31T00:05:04;21.48;;;3.70;;
30036;SDS011;36325;51.512;-0.382;2023-07-31T00:07:34;18.52;;;4.18;;
30036;SDS011;36325;51.512;-0.382;2023-07-31T00:10:04;10.75;;;3.35;;
30036;SDS011;36325;51.512;-0.382;2023-07-31T00:12:32;12.65;;;3.63;;
30036;SDS011;36325;51.512;-0.382;2023-07-31T00:15:15;13.75;;;3.58;;
30036;SDS011;36325;51.512;-0.382;2023-07-31T00:17:42;9.85;;;2.97;;
30036;SDS011;36325;51.512;-0.382;2023-07-31T00:20:11;11.65;;;3.60;;
30036;SDS011;36325;51.512;-0.382;2023-07-31T00:22:38;7.50;;;2.55;;
30036;SDS011;36325;51.512;-0.382;2023-07-31T00:25:06;10.88;;;3.35;;
30036;SDS011;36325;51.512;-0.382;2023-07-31T00:30:05;10.63;;;2.83;;
30036;SDS011;36325;51.512;-0.382;2023-07-31T00:32:33;5.95;;;2.20;;
30036;SDS011;36325;51.512;-0.382;2023-07-31T00:35:01;8.88;;;2.95;;
30036;SDS011;36325;51.512;-0.382;2023-07-31T00:37:31;4.70;;;2.10;;
30036;SDS011;36325;51.512;-0.382;2023-07-31T00:39:59;4.75;;;2.05;;
30036;SDS011;36325;51.512;-0.382;2023-07-31T00:42:27;5.45;;;1.65;;
30036;SDS011;36325;51.512;-0.382;2023-07-31T00:44:54;7.55;;;1.92;;
30036;SDS011;36325;51.512;-0.382;2023-07-31T00:47:22;4.18;;;1.83;;
30036;SDS011;36325;51.512;-0.382;2023-07-31T00:49:49;6.55;;;1.50;;
30036;SDS011;36325;51.512;-0.382;2023-07-31T00:52:18;2.00;;;0.95;;
30036;SDS011;36325;51.512;-0.382;2023-07-31T00:54:48;2.90;;;1.05;;
30036;SDS011;36325;51.512;-0.382;2023-07-31T00:57:16;2.08;;;1.10;;
30036;SDS011;36325;51.512;-0.382;2023-07-31T00:59:44;3.03;;;1.10;;
30036;SDS011;36325;51.512;-0.382;2023-07-31T01:02:14;4.93;;;1.13;;
30036;SDS011;36325;51.512;-0.382;2023-07-31T01:04:42;3.75;;;1.20;;
30036;SDS011;36325;51.512;-0.382;2023-07-31T01:07:25;3.50;;;1.25;;
30036;SDS011;36325;51.512;-0.382;2023-07-31T01:12:45;2.60;;;1.10;;
30036;SDS011;36325;51.512;-0.382;2023-07-31T01:15:14;1.42;;;0.68;;
30036;SDS011;36325;51.512;-0.382;2023-07-31T01:17:45;1.98;;;0.80;;
30036;SDS011;36325;51.512;-0.382;2023-07-31T01:20:15;4.22;;;1.38;;
30036;SDS011;36325;51.512;-0.382;2023-07-31T01:31:29;4.05;;;1.10;;
30036;SDS011;36325;51.512;-0.382;2023-07-31T01:33:58;1.42;;;0.73;;
30036;SDS011;36325;51.512;-0.382;2023-07-31T01:36:28;3.08;;;0.80;;
30036;SDS011;36325;51.512;-0.382;2023-07-31T01:38:59;0.93;;;0.63;;
30036;SDS011;36325;51.512;-0.382;2023-07-31T01:41:27;5.35;;;0.95;;
30036;SDS011;36325;51.512;-0.382;2023-07-31T01:43:57;8.52;;;1.00;;
30036;SDS011;36325;51.512;-0.382;2023-07-31T01:46:24;2.05;;;0.90;;
30036;SDS011;36325;51.512;-0.382;2023-07-31T01:48:51;1.42;;;0.70;;
30036;SDS011;36325;51.512;-0.382;2023-07-31T01:51:19;1.38;;;0.60;;
30036;SDS011;36325;51.512;-0.382;2023-07-31T01:53:47;1.80;;;0.80;;
30036;SDS011;36325;51.512;-0.382;2023-07-31T01:56:15;3.45;;;0.73;;
30036;SDS011;36325;51.512;-0.382;2023-07-31T01:58:42;2.88;;;0.80;;
30036;SDS011;36325;51.512;-0.382;2023-07-31T02:01:11;1.58;;;0.60;;
30036;SDS011;36325;51.512;-0.382;2023-07-31T02:03:39;2.90;;;0.93;;
30036;SDS011;36325;51.512;-0.382;2023-07-31T02:06:09;7.53;;;0.80;;
30036;SDS011;36325;51.512;-0.382;2023-07-31T02:08:37;3.20;;;0.90;;
30036;SDS011;36325;51.512;-0.382;2023-07-31T02:11:12;2.15;;;0.88;;
30036;SDS011;36325;51.512;-0.382;2023-07-31T02:13:39;5.97;;;0.95;;
30036;SDS011;36325;51.512;-0.382;2023-07-31T02:16:07;4.13;;;1.05;;
30036;SDS011;36325;51.512;-0.382;2023-07-31T02:18:35;4.43;;;1.02;;
30036;SDS011;36325;51.512;-0.382;2023-07-31T02:21:02;5.10;;;1.00;;
30036;SDS011;36325;51.512;-0.382;2023-07-31T02:23:30;4.18;;;1.25;;
30036;SDS011;36325;51.512;-0.382;2023-07-31T02:25:57;3.58;;;1.60;;
30036;SDS011;36325;51.512;-0.382;2023-07-31T02:28:25;4.60;;;1.30;;
30036;SDS011;36325;51.512;-0.382;2023-07-31T02:30:53;5.03;;;0.88;;
30036;SDS011;36325;51.512;-0.382;2023-07-31T02:33:21;1.83;;;0.90;;
30036;SDS011;36325;51.512;-0.382;2023-07-31T02:35:49;2.28;;;0.98;;
30036;SDS011;36325;51.512;-0.382;2023-07-31T02:38:17;3.58;;;1.30;;
30036;SDS011;36325;51.512;-0.382;2023-07-31T02:40:44;3.90;;;0.80;;
30036;SDS011;36325;51.512;-0.382;2023-07-31T02:43:13;2.20;;;0.93;;
30036;SDS011;36325;51.512;-0.382;2023-07-31T02:45:42;1.63;;;1.10;;
30036;SDS011;36325;51.512;-0.382;2023-07-31T02:48:10;5.20;;;1.00;;
30036;SDS011;36325;51.512;-0.382;2023-07-31T02:50:37;2.03;;;1.00;;
30036;SDS011;36325;51.512;-0.382;2023-07-31T02:53:05;2.92;;;0.80;;
30036;SDS011;36325;51.512;-0.382;2023-07-31T02:55:32;3.80;;;0.93;;
30036;SDS011;36325;51.512;-0.382;2023-07-31T02:58:03;3.05;;;0.77;;
30036;SDS011;36325;51.512;-0.382;2023-07-31T03:00:31;4.57;;;0.88;;
30036;SDS011;36325;51.512;-0.382;2023-07-31T03:02:59;4.10;;;1.02;;
30036;SDS011;36325;51.512;-0.382;2023-07-31T03:05:27;2.78;;;1.00;;
30036;SDS011;36325;51.512;-0.382;2023-07-31T03:07:54;3.58;;;0.82;;
30036;SDS011;36325;51.512;-0.382;2023-07-31T03:10:24;4.75;;;0.80;;
30036;SDS011;36325;51.512;-0.382;2023-07-31T03:12:54;4.07;;;0.93;;
30036;SDS011;36325;51.512;-0.382;2023-07-31T03:15:22;3.03;;;0.82;;
30036;SDS011;36325;51.512;-0.382;2023-07-31T03:17:49;2.53;;;0.98;;
30036;SDS011;36325;51.512;-0.382;2023-07-31T03:20:19;9.82;;;0.95;;
30036;SDS011;36325;51.512;-0.382;2023-07-31T03:22:46;2.08;;;1.13;;
30036;SDS011;36325;51.512;-0.382;2023-07-31T03:25:14;2.28;;;0.85;;
30036;SDS011;36325;51.512;-0.382;2023-07-31T03:27:41;3.13;;;1.55;;
30036;SDS011;36325;51.512;-0.382;2023-07-31T03:30:09;2.28;;;0.80;;
30036;SDS011;36325;51.512;-0.382;2023-07-31T03:32:37;1.95;;;0.60;;
30036;SDS011;36325;51.512;-0.382;2023-07-31T03:35:09;4.03;;;1.13;;
30036;SDS011;36325;51.512;-0.382;2023-07-31T03:37:37;3.22;;;0.80;;
30036;SDS011;36325;51.512;-0.382;2023-07-31T03:40:06;2.47;;;1.05;;
30036;SDS011;36325;51.512;-0.382;2023-07-31T03:42:34;4.55;;;1.00;;
30036;SDS011;36325;51.512;-0.382;2023-07-31T03:45:02;1.67;;;0.70;;
30036;SDS011;36325;51.512;-0.382;2023-07-31T03:47:30;2.45;;;0.80;;
30036;SDS011;36325;51.512;-0.382;2023-07-31T03:49:58;5.20;;;1.45;;
30036;SDS011;36325;51.512;-0.382;2023-07-31T03:52:26;2.67;;;0.82;;
30036;SDS011;36325;51.512;-0.382;2023-07-31T03:54:56;3.00;;;1.15;;
30036;SDS011;36325;51.512;-0.382;2023-07-31T03:57:24;5.03;;;1.13;;
30036;SDS011;36325;51.512;-0.382;2023-07-31T03:59:55;4.93;;;1.83;;
30036;SDS011;36325;51.512;-0.382;2023-07-31T04:02:24;2.10;;;0.70;;
30036;SDS011;36325;51.512;-0.382;2023-07-31T04:04:51;3.10;;;1.02;;
30036;SDS011;36325;51.512;-0.382;2023-07-31T04:07:20;3.13;;;1.13;;
30036;SDS011;36325;51.512;-0.382;2023-07-31T04:09:48;2.85;;;1.08;;
30036;SDS011;36325;51.512;-0.382;2023-07-31T04:12:20;3.35;;;1.00;;
30036;SDS011;36325;51.512;-0.382;2023-07-31T04:14:49;7.13;;;1.02;;
30036;SDS011;36325;51.512;-0.382;2023-07-31T04:17:18;8.60;;;0.90;;
30036;SDS011;36325;51.512;-0.382;2023-07-31T04:19:47;4.70;;;1.23;;
30036;SDS011;36325;51.512;-0.382;2023-07-31T04:22:15;4.30;;;1.02;;
30036;SDS011;36325;51.512;-0.382;2023-07-31T04:24:43;3.08;;;0.82;;
30036;SDS011;36325;51.512;-0.382;2023-07-31T04:27:13;1.63;;;0.88;;
30036;SDS011;36325;51.512;-0.382;2023-07-31T04:29:41;3.92;;;1.02;;
30036;SDS011;36325;51.512;-0.382;2023-07-31T04:32:14;1.98;;;0.77;;
30036;SDS011;36325;51.512;-0.382;2023-07-31T04:34:43;2.80;;;0.88;;
30036;SDS011;36325;51.512;-0.382;2023-07-31T04:37:11;2.58;;;1.15;;
30036;SDS011;36325;51.512;-0.382;2023-07-31T04:39:40;7.25;;;1.67;;
30036;SDS011;36325;51.512;-0.382;2023-07-31T04:42:09;3.22;;;1.20;;
30036;SDS011;36325;51.512;-0.382;2023-07-31T04:44:37;1.95;;;1.00;;
30036;SDS011;36325;51.512;-0.382;2023-07-31T04:47:04;4.57;;;0.98;;
30036;SDS011;36325;51.512;-0.382;2023-07-31T04:49:34;2.60;;;1.00;;
30036;SDS011;36325;51.512;-0.382;2023-07-31T04:52:02;4.03;;;1.42;;
30036;SDS011;36325;51.512;-0.382;2023-07-31T04:54:31;3.85;;;1.65;;
30036;SDS011;36325;51.512;-0.382;2023-07-31T04:56:59;4.60;;;1.23;;
30036;SDS011;36325;51.512;-0.382;2023-07-31T04:59:26;7.63;;;1.17;;
30036;SDS011;36325;51.512;-0.382;2023-07-31T05:01:58;2.85;;;1.20;;
30036;SDS011;36325;51.512;-0.382;2023-07-31T05:04:27;3.25;;;1.15;;
30036;SDS011;36325;51.512;-0.382;2023-07-31T05:06:55;5.03;;;1.55;;
30036;SDS011;36325;51.512;-0.382;2023-07-31T05:09:22;2.55;;;1.08;;
30036;SDS011;36325;51.512;-0.382;2023-07-31T05:11:51;3.55;;;1.27;;
30036;SDS011;36325;51.512;-0.382;2023-07-31T05:14:18;3.55;;;1.05;;
30036;SDS011;36325;51.512;-0.382;2023-07-31T05:16:47;4.00;;;0.85;;
30036;SDS011;36325;51.512;-0.382;2023-07-31T05:19:14;5.53;;;1.83;;
30036;SDS011;36325;51.512;-0.382;2023-07-31T05:21:41;5.13;;;1.40;;
30036;SDS011;36325;51.512;-0.382;2023-07-31T05:24:10;8.48;;;1.40;;
30036;SDS011;36325;51.512;-0.382;2023-07-31T05:26:38;5.95;;;1.55;;
30036;SDS011;36325;51.512;-0.382;2023-07-31T05:29:06;5.65;;;1.23;;
30036;SDS011;36325;51.512;-0.382;2023-07-31T05:31:36;6.80;;;1.95;;
30036;SDS011;36325;51.512;-0.382;2023-07-31T05:34:06;4.13;;;0.90;;
30036;SDS011;36325;51.512;-0.382;2023-07-31T05:36:34;9.45;;;1.40;;
30036;SDS011;36325;51.512;-0.382;2023-07-31T05:39:03;4.75;;;1.10;;
30036;SDS011;36325;51.512;-0.382;2023-07-31T05:41:34;9.52;;;2.47;;
30036;SDS011;36325;51.512;-0.382;2023-07-31T05:44:03;6.65;;;2.47;;
30036;SDS011;36325;51.512;-0.382;2023-07-31T05:46:30;4.18;;;1.90;;
30036;SDS011;36325;51.512;-0.382;2023-07-31T05:48:58;4.07;;;1.25;;
30036;SDS011;36325;51.512;-0.382;2023-07-31T05:51:30;8.25;;;1.52;;
30036;SDS011;36325;51.512;-0.382;2023-07-31T05:54:01;7.82;;;1.67;;
30036;SDS011;36325;51.512;-0.382;2023-07-31T05:56:28;7.22;;;1.67;;
30036;SDS011;36325;51.512;-0.382;2023-07-31T05:58:57;7.18;;;2.15;;
30036;SDS011;36325;51.512;-0.382;2023-07-31T06:01:24;13.43;;;2.08;;
30036;SDS011;36325;51.512;-0.382;2023-07-31T06:03:53;4.38;;;1.52;;
30036;SDS011;36325;51.512;-0.382;2023-07-31T06:06:34;6.63;;;1.10;;
30036;SDS011;36325;51.512;-0.382;2023-07-31T06:09:02;4.65;;;1.33;;
30036;SDS011;36325;51.512;-0.382;2023-07-31T06:11:34;6.72;;;1.40;;
30036;SDS011;36325;51.512;-0.382;2023-07-31T06:14:01;3.78;;;1.33;;
30036;SDS011;36325;51.512;-0.382;2023-07-31T06:16:29;11.10;;;2.08;;
30036;SDS011;36325;51.512;-0.382;2023-07-31T06:18:57;7.45;;;1.88;;
30036;SDS011;36325;51.512;-0.382;2023-07-31T06:21:25;8.55;;;1.83;;
30036;SDS011;36325;51.512;-0.382;2023-07-31T06:23:52;4.40;;;1.38;;
30036;SDS011;36325;51.512;-0.382;2023-07-31T06:26:21;5.00;;;1.50;;
30036;SDS011;36325;51.512;-0.382;2023-07-31T06:28:49;5.45;;;1.50;;
30036;SDS011;36325;51.512;-0.382;2023-07-31T06:31:17;6.18;;;1.60;;
30036;SDS011;36325;51.512;-0.382;2023-07-31T06:33:51;2.50;;;1.05;;
30036;SDS011;36325;51.512;-0.382;2023-07-31T06:36:19;4.57;;;1.17;;
30036;SDS011;36325;51.512;-0.382;2023-07-31T06:38:48;5.53;;;1.20;;
30036;SDS011;36325;51.512;-0.382;2023-07-31T06:41:15;3.08;;;1.38;;
30036;SDS011;36325;51.512;-0.382;2023-07-31T06:43:44;4.15;;;1.10;;
30036;SDS011;36325;51.512;-0.382;2023-07-31T06:46:11;10.68;;;1.88;;
30036;SDS011;36325;51.512;-0.382;2023-07-31T06:48:39;2.70;;;1.08;;
30036;SDS011;36325;51.512;-0.382;2023-07-31T06:51:06;4.28;;;1.95;;
30036;SDS011;36325;51.512;-0.382;2023-07-31T06:53:34;5.18;;;1.20;;
30036;SDS011;36325;51.512;-0.382;2023-07-31T06:56:02;5.68;;;1.70;;
30036;SDS011;36325;51.512;-0.382;2023-07-31T06:58:31;2.83;;;1.40;;
30036;SDS011;36325;51.512;-0.382;2023-07-31T07:01:01;4.60;;;1.45;;
30036;SDS011;36325;51.512;-0.382;2023-07-31T07:03:30;6.28;;;1.38;;
30036;SDS011;36325;51.512;-0.382;2023-07-31T07:06:00;4.15;;;1.15;;
30036;SDS011;36325;51.512;-0.382;2023-07-31T07:08:28;7.72;;;1.30;;
30036;SDS011;36325;51.512;-0.382;2023-07-31T07:10:56;2.30;;;0.80;;
30036;SDS011;36325;51.512;-0.382;2023-07-31T07:13:24;1.75;;;0.60;;
30036;SDS011;36325;51.512;-0.382;2023-07-31T07:15:51;1.08;;;0.73;;
30036;SDS011;36325;51.512;-0.382;2023-07-31T07:18:20;3.65;;;1.00;;
30036;SDS011;36325;51.512;-0.382;2023-07-31T07:20:49;2.10;;;1.00;;
30036;SDS011;36325;51.512;-0.382;2023-07-31T07:23:17;5.25;;;1.02;;
30036;SDS011;36325;51.512;-0.382;2023-07-31T07:25:46;4.55;;;1.00;;
30036;SDS011;36325;51.512;-0.382;2023-07-31T07:28:14;2.55;;;0.77;;
30036;SDS011;36325;51.512;-0.382;2023-07-31T07:30:42;2.53;;;0.85;;
30036;SDS011;36325;51.512;-0.382;2023-07-31T07:33:10;2.30;;;1.00;;
30036;SDS011;36325;51.512;-0.382;2023-07-31T07:35:40;5.10;;;0.82;;
30036;SDS011;36325;51.512;-0.382;2023-07-31T07:38:09;3.30;;;1.13;;
30036;SDS011;36325;51.512;-0.382;2023-07-31T07:40:38;3.05;;;1.20;;
30036;SDS011;36325;51.512;-0.382;2023-07-31T07:43:07;2.13;;;1.10;;
30036;SDS011;36325;51.512;-0.382;2023-07-31T07:45:35;3.67;;;1.50;;
30036;SDS011;36325;51.512;-0.382;2023-07-31T07:48:03;2.85;;;1.35;;
30036;SDS011;36325;51.512;-0.382;2023-07-31T07:50:31;3.10;;;1.33;;
30036;SDS011;36325;51.512;-0.382;2023-07-31T07:53:00;5.80;;;1.48;;
30036;SDS011;36325;51.512;-0.382;2023-07-31T07:55:28;4.20;;;1.10;;
30036;SDS011;36325;51.512;-0.382;2023-07-31T07:57:56;5.40;;;1.45;;
30036;SDS011;36325;51.512;-0.382;2023-07-31T08:00:23;3.80;;;1.30;;
30036;SDS011;36325;51.512;-0.382;2023-07-31T08:02:52;2.50;;;1.00;;
30036;SDS011;36325;51.512;-0.382;2023-07-31T08:05:23;7.50;;;1.10;;
30036;SDS011;36325;51.512;-0.382;2023-07-31T08:07:51;3.28;;;0.90;;
30036;SDS011;36325;51.512;-0.382;2023-07-31T08:10:18;12.98;;;1.55;;
30036;SDS011;36325;51.512;-0.382;2023-07-31T08:12:47;4.38;;;1.35;;
30036;SDS011;36325;51.512;-0.382;2023-07-31T08:15:19;4.28;;;2.28;;
30036;SDS011;36325;51.512;-0.382;2023-07-31T08:17:48;6.78;;;1.27;;
30036;SDS011;36325;51.512;-0.382;2023-07-31T08:20:16;3.08;;;1.40;;
30036;SDS011;36325;51.512;-0.382;2023-07-31T08:22:43;2.28;;;0.90;;
30036;SDS011;36325;51.512;-0.382;2023-07-31T08:25:12;3.20;;;1.27;;
30036;SDS011;36325;51.512;-0.382;2023-07-31T08:27:43;5.65;;;1.40;;
30036;SDS011;36325;51.512;-0.382;2023-07-31T08:30:12;3.17;;;1.23;;
30036;SDS011;36325;51.512;-0.382;2023-07-31T08:32:40;2.38;;;1.00;;
30036;SDS011;36325;51.512;-0.382;2023-07-31T08:35:07;5.93;;;1.50;;
30036;SDS011;36325;51.512;-0.382;2023-07-31T08:37:37;10.13;;;1.88;;
30036;SDS011;36325;51.512;-0.382;2023-07-31T08:40:06;5.57;;;2.15;;
30036;SDS011;36325;51.512;-0.382;2023-07-31T08:42:43;4.45;;;2.20;;
30036;SDS011;36325;51.512;-0.382;2023-07-31T08:45:15;7.35;;;1.55;;
30036;SDS011;36325;51.512;-0.382;2023-07-31T08:47:48;5.25;;;1.55;;
30036;SDS011;36325;51.512;-0.382;2023-07-31T08:50:18;6.97;;;1.83;;
30036;SDS011;36325;51.512;-0.382;2023-07-31T08:52:48;1.85;;;1.02;;
30036;SDS011;36325;51.512;-0.382;2023-07-31T08:55:17;3.47;;;1.08;;
30036;SDS011;36325;51.512;-0.382;2023-07-31T08:57:55;4.63;;;1.73;;
30036;SDS011;36325;51.512;-0.382;2023-07-31T09:00:23;5.28;;;1.67;;
30036;SDS011;36325;51.512;-0.382;2023-07-31T09:05:28;7.53;;;1.58;;
30036;SDS011;36325;51.512;-0.382;2023-07-31T09:07:57;3.83;;;1.30;;
30036;SDS011;36325;51.512;-0.382;2023-07-31T09:10:25;3.75;;;1.40;;
30036;SDS011;36325;51.512;-0.382;2023-07-31T09:12:53;4.78;;;2.00;;
30036;SDS011;36325;51.512;-0.382;2023-07-31T09:15:21;3.65;;;1.80;;
30036;SDS011;36325;51.512;-0.382;2023-07-31T09:18:04;5.30;;;1.77;;
30036;SDS011;36325;51.512;-0.382;2023-07-31T09:20:35;4.53;;;2.17;;
30036;SDS011;36325;51.512;-0.382;2023-07-31T09:23:05;8.30;;;2.70;;
30036;SDS011;36325;51.512;-0.382;2023-07-31T09:25:35;6.93;;;2.33;;
30036;SDS011;36325;51.512;-0.382;2023-07-31T09:28:04;8.60;;;2.05;;
30036;SDS011;36325;51.512;-0.382;2023-07-31T09:33:17;17.15;;;3.75;;
30036;SDS011;36325;51.512;-0.382;2023-07-31T09:35:45;16.27;;;3.90;;
30036;SDS011;36325;51.512;-0.382;2023-07-31T09:38:15;10.27;;;3.10;;
30036;SDS011;36325;51.512;-0.382;2023-07-31T09:40:44;18.38;;;2.55;;
30036;SDS011;36325;51.512;-0.382;2023-07-31T09:43:18;11.18;;;3.30;;
30036;SDS011;36325;51.512;-0.382;2023-07-31T09:45:47;8.55;;;2.38;;
30036;SDS011;36325;51.512;-0.382;2023-07-31T09:48:18;4.45;;;1.60;;
30036;SDS011;36325;51.512;-0.382;2023-07-31T09:50:47;2.33;;;1.27;;
30036;SDS011;36325;51.512;-0.382;2023-07-31T09:53:16;2.08;;;1.15;;
30036;SDS011;36325;51.512;-0.382;2023-07-31T09:55:43;4.35;;;1.00;;
30036;SDS011;36325;51.512;-0.382;2023-07-31T09:58:11;3.85;;;1.30;;
30036;SDS011;36325;51.512;-0.382;2023-07-31T10:00:44;2.33;;;1.17;;
30036;SDS011;36325;51.512;-0.382;2023-07-31T10:03:13;2.80;;;1.05;;
30036;SDS011;36325;51.512;-0.382;2023-07-31T10:05:45;3.40;;;1.15;;
30036;SDS011;36325;51.512;-0.382;2023-07-31T10:08:18;3.80;;;0.98;;
30036;SDS011;36325;51.512;-0.382;2023-07-31T10:10:49;1.70;;;1.08;;
30036;SDS011;36325;51.512;-0.382;2023-07-31T10:13:17;2.17;;;0.88;;
30036;SDS011;36325;51.512;-0.382;2023-07-31T10:15:50;4.18;;;1.20;;
30036;SDS011;36325;51.512;-0.382;2023-07-31T10:18:21;1.45;;;1.00;;
30036;SDS011;36325;51.512;-0.382;2023-07-31T10:20:49;3.55;;;0.70;;
30036;SDS011;36325;51.512;-0.382;2023-07-31T10:23:19;3.22;;;1.45;;
30036;SDS011;36325;51.512;-0.382;2023-07-31T10:25:47;3.40;;;1.10;;
30036;SDS011;36325;51.512;-0.382;2023-07-31T10:28:16;1.15;;;0.82;;
30036;SDS011;36325;51.512;-0.382;2023-07-31T10:30:45;1.30;;;0.70;;
30036;SDS011;36325;51.512;-0.382;2023-07-31T10:33:20;3.58;;;1.35;;
30036;SDS011;36325;51.512;-0.382;2023-07-31T10:38:48;2.70;;;1.45;;
30036;SDS011;36325;51.512;-0.382;2023-07-31T10:41:27;3.47;;;1.33;;
30036;SDS011;36325;51.512;-0.382;2023-07-31T10:44:01;3.05;;;1.40;;
30036;SDS011;36325;51.512;-0.382;2023-07-31T10:46:29;3.42;;;1.50;;
30036;SDS011;36325;51.512;-0.382;2023-07-31T10:48:58;2.22;;;1.00;;
30036;SDS011;36325;51.512;-0.382;2023-07-31T10:51:34;3.03;;;1.70;;
30036;SDS011;36325;51.512;-0.382;2023-07-31T10:54:12;6.00;;;1.63;;
30036;SDS011;36325;51.512;-0.382;2023-07-31T10:56:50;3.05;;;1.27;;
30036;SDS011;36325;51.512;-0.382;2023-07-31T10:59:34;2.83;;;1.15;;
30036;SDS011;36325;51.512;-0.382;2023-07-31T11:02:04;2.22;;;1.50;;
30036;SDS011;36325;51.512;-0.382;2023-07-31T11:05:13;7.43;;;1.25;;
30036;SDS011;36325;51.512;-0.382;2023-07-31T11:07:46;5.40;;;1.40;;
30036;SDS011;36325;51.512;-0.382;2023-07-31T11:10:22;4.97;;;1.80;;
30036;SDS011;36325;51.512;-0.382;2023-07-31T11:12:55;4.38;;;1.48;;
30036;SDS011;36325;51.512;-0.382;2023-07-31T11:15:26;3.83;;;1.83;;
30036;SDS011;36325;51.512;-0.382;2023-07-31T11:17:57;4.50;;;2.03;;
30036;SDS011;36325;51.512;-0.382;2023-07-31T11:20:29;4.72;;;2.13;;
30036;SDS011;36325;51.512;-0.382;2023-07-31T11:23:02;6.88;;;2.17;;
30036;SDS011;36325;51.512;-0.382;2023-07-31T11:25:32;7.28;;;2.42;;
30036;SDS011;36325;51.512;-0.382;2023-07-31T11:28:07;4.75;;;2.30;;
30036;SDS011;36325;51.512;-0.382;2023-07-31T11:30:38;5.78;;;2.55;;
30036;SDS011;36325;51.512;-0.382;2023-07-31T11:33:11;6.00;;;2.63;;
30036;SDS011;36325;51.512;-0.382;2023-07-31T11:38:23;5.68;;;2.35;;
30036;SDS011;36325;51.512;-0.382;2023-07-31T11:40:56;7.88;;;2.42;;
30036;SDS011;36325;51.512;-0.382;2023-07-31T11:43:30;4.47;;;2.15;;
30036;SDS011;36325;51.512;-0.382;2023-07-31T11:45:59;5.82;;;1.83;;
30036;SDS011;36325;51.512;-0.382;2023-07-31T11:48:36;7.38;;;2.78;;
30036;SDS011;36325;51.512;-0.382;2023-07-31T11:51:08;6.25;;;2.33;;
30036;SDS011;36325;51.512;-0.382;2023-07-31T11:56:09;11.23;;;2.65;;
30036;SDS011;36325;51.512;-0.382;2023-07-31T11:58:39;9.80;;;2.43;;
30036;SDS011;36325;51.512;-0.382;2023-07-31T12:01:09;6.97;;;2.40;;
30036;SDS011;36325;51.512;-0.382;2023-07-31T12:03:42;7.47;;;2.50;;
30036;SDS011;36325;51.512;-0.382;2023-07-31T12:06:34;7.28;;;2.45;;
30036;SDS011;36325;51.512;-0.382;2023-07-31T12:09:04;8.82;;;3.00;;
30036;SDS011;36325;51.512;-0.382;2023-07-31T12:11:46;4.13;;;1.90;;
30036;SDS011;36325;51.512;-0.382;2023-07-31T12:14:21;12.25;;;2.65;;
30036;SDS011;36325;51.512;-0.382;2023-07-31T12:16:56;10.75;;;3.22;;
30036;SDS011;36325;51.512;-0.382;2023-07-31T12:19:35;5.50;;;2.38;;
30036;SDS011;36325;51.512;-0.382;2023-07-31T12:22:14;7.28;;;2.35;;
30036;SDS011;36325;51.512;-0.382;2023-07-31T12:24:44;5.95;;;2.55;;
30036;SDS011;36325;51.512;-0.382;2023-07-31T12:27:12;4.70;;;2.70;;
30036;SDS011;36325;51.512;-0.382;2023-07-31T12:29:42;13.20;;;3.20;;
30036;SDS011;36325;51.512;-0.382;2023-07-31T12:32:24;5.90;;;2.78;;
30036;SDS011;36325;51.512;-0.382;2023-07-31T12:34:54;14.60;;;3.28;;
30036;SDS011;36325;51.512;-0.382;2023-07-31T12:37:34;10.55;;;2.92;;
30036;SDS011;36325;51.512;-0.382;2023-07-31T12:40:03;8.75;;;3.17;;
30036;SDS011;36325;51.512;-0.382;2023-07-31T12:42:36;11.13;;;2.88;;
30036;SDS011;36325;51.512;-0.382;2023-07-31T12:45:08;5.43;;;2.57;;
30036;SDS011;36325;51.512;-0.382;2023-07-31T12:47:37;10.40;;;3.15;;
30036;SDS011;36325;51.512;-0.382;2023-07-31T12:50:07;10.98;;;3.38;;
30036;SDS011;36325;51.512;-0.382;2023-07-31T12:52:38;8.35;;;3.42;;
30036;SDS011;36325;51.512;-0.382;2023-07-31T12:55:07;8.23;;;3.35;;
30036;SDS011;36325;51.512;-0.382;2023-07-31T12:57:36;14.02;;;3.83;;
30036;SDS011;36325;51.512;-0.382;2023-07-31T13:00:04;18.25;;;3.75;;
30036;SDS011;36325;51.512;-0.382;2023-07-31T13:02:32;9.48;;;3.40;;
30036;SDS011;36325;51.512;-0.382;2023-07-31T13:05:02;8.88;;;3.35;;
30036;SDS011;36325;51.512;-0.382;2023-07-31T13:07:30;10.15;;;3.30;;
30036;SDS011;36325;51.512;-0.382;2023-07-31T13:10:00;10.45;;;3.25;;
30036;SDS011;36325;51.512;-0.382;2023-07-31T13:12:29;14.02;;;3.15;;
30036;SDS011;36325;51.512;-0.382;2023-07-31T13:15:11;10.80;;;3.92;;
30036;SDS011;36325;51.512;-0.382;2023-07-31T13:17:39;19.45;;;4.07;;
30036;SDS011;36325;51.512;-0.382;2023-07-31T13:20:07;10.40;;;3.10;;
30036;SDS011;36325;51.512;-0.382;2023-07-31T13:22:38;17.27;;;3.57;;
30036;SDS011;36325;51.512;-0.382;2023-07-31T13:25:09;15.67;;;3.73;;
30036;SDS011;36325;51.512;-0.382;2023-07-31T13:27:37;11.02;;;4.35;;
30036;SDS011;36325;51.512;-0.382;2023-07-31T13:30:07;14.02;;;4.65;;
30036;SDS011;36325;51.512;-0.382;2023-07-31T13:32:34;16.45;;;4.30;;
30036;SDS011;36325;51.512;-0.382;2023-07-31T13:35:06;9.82;;;4.47;;
30036;SDS011;36325;51.512;-0.382;2023-07-31T13:37:35;20.88;;;4.53;;
30036;SDS011;36325;51.512;-0.382;2023-07-31T13:40:03;12.10;;;3.60;;
30036;SDS011;36325;51.512;-0.382;2023-07-31T13:42:33;15.38;;;4.10;;
30036;SDS011;36325;51.512;-0.382;2023-07-31T13:45:04;13.90;;;4.22;;
30036;SDS011;36325;51.512;-0.382;2023-07-31T13:47:35;16.13;;;4.13;;
30036;SDS011;36325;51.512;-0.382;2023-07-31T13:50:09;13.52;;;4.38;;
30036;SDS011;36325;51.512;-0.382;2023-07-31T13:52:40;14.85;;;4.25;;
30036;SDS011;36325;51.512;-0.382;2023-07-31T13:55:07;13.07;;;3.92;;
30036;SDS011;36325;51.512;-0.382;2023-07-31T13:57:38;17.67;;;5.03;;
30036;SDS011;36325;51.512;-0.382;2023-07-31T14:00:21;18.35;;;5.63;;
30036;SDS011;36325;51.512;-0.382;2023-07-31T14:02:49;15.82;;;4.45;;
30036;SDS011;36325;51.512;-0.382;2023-07-31T14:05:19;16.85;;;5.00;;
30036;SDS011;36325;51.512;-0.382;2023-07-31T14:07:47;16.63;;;4.93;;
30036;SDS011;36325;51.512;-0.382;2023-07-31T14:10:17;13.48;;;4.13;;
30036;SDS011;36325;51.512;-0.382;2023-07-31T14:12:46;12.75;;;4.28;;
30036;SDS011;36325;51.512;-0.382;2023-07-31T14:15:21;11.18;;;4.38;;
30036;SDS011;36325;51.512;-0.382;2023-07-31T14:17:50;22.40;;;4.88;;
30036;SDS011;36325;51.512;-0.382;2023-07-31T14:20:27;10.38;;;3.90;;
30036;SDS011;36325;51.512;-0.382;2023-07-31T14:22:55;12.45;;;4.38;;
30036;SDS011;36325;51.512;-0.382;2023-07-31T14:25:24;15.05;;;4.97;;
30036;SDS011;36325;51.512;-0.382;2023-07-31T14:27:52;10.95;;;4.32;;
30036;SDS011;36325;51.512;-0.382;2023-07-31T14:30:19;13.73;;;3.60;;
30036;SDS011;36325;51.512;-0.382;2023-07-31T14:32:50;16.05;;;5.30;;
30036;SDS011;36325;51.512;-0.382;2023-07-31T14:35:19;18.17;;;5.18;;
30036;SDS011;36325;51.512;-0.382;2023-07-31T14:37:49;13.52;;;4.25;;
30036;SDS011;36325;51.512;-0.382;2023-07-31T14:40:17;29.48;;;5.25;;
30036;SDS011;36325;51.512;-0.382;2023-07-31T14:42:45;13.73;;;4.95;;
30036;SDS011;36325;51.512;-0.382;2023-07-31T14:45:14;18.88;;;4.50;;
30036;SDS011;36325;51.512;-0.382;2023-07-31T14:47:43;14.65;;;5.07;;
30036;SDS011;36325;51.512;-0.382;2023-07-31T14:50:25;11.50;;;4.53;;
30036;SDS011;36325;51.512;-0.382;2023-07-31T14:53:15;17.30;;;5.45;;
30036;SDS011;36325;51.512;-0.382;2023-07-31T14:55:44;17.23;;;4.95;;
30036;SDS011;36325;51.512;-0.382;2023-07-31T14:58:13;15.40;;;5.00;;
30036;SDS011;36325;51.512;-0.382;2023-07-31T15:00:41;13.80;;;3.72;;
30036;SDS011;36325;51.512;-0.382;2023-07-31T15:03:11;10.05;;;3.55;;
30036;SDS011;36325;51.512;-0.382;2023-07-31T15:05:40;13.15;;;4.20;;
30036;SDS011;36325;51.512;-0.382;2023-07-31T15:08:10;18.10;;;4.25;;
30036;SDS011;36325;51.512;-0.382;2023-07-31T15:10:54;19.98;;;4.38;;
30036;SDS011;36325;51.512;-0.382;2023-07-31T15:13:26;14.00;;;4.80;;